Richmond, California
Current Conditions -  °F | °C
As of 10:53 AM on Tuesday 27 Jan 2015 (Local Time) from KOAK Reporting Station
Overcast Overcast  
Wind Chill: 65°   Ceiling: 10000
Heat Index: 65°   Visibility: 10mi
Dew Point: 43°   Wind: 5mph
Humidity: 45%   Direction: 130°SE
Pressure: 30.2"   Gusts: NA
Location:  37.94°N, 122.34°W
Report Text: KOAK 271853Z 13004KT 10SM FEW070 OVC100 18/06 A3020 RMK AO2 SLP227 T01830061
Loading
Personal Weather Stations






























Interactive Weather Map New forecast layout! Learn more

10-Day Weather Forecast

Advertisements
Track Severe Weather on mobile